West Yellowstone, MT

7:46 AM MDT on October 22, 2014 (GMT -0600)
Yellowstone | Change Station
CLOSE
Current Station
Airport
Location: West Yellowstone,
Elevation: 6644 ft
Nearby Weather Stations

Elev 6644 ft 44.69 °N, 111.12 °W | Updated 11 minutes ago

Overcast
Overcast
32 °F
Feels Like 26 °F
N
7
Wind Variable Wind from South

Today
High -- | Low -- °F
--% Chance of Precip.
Yesterday
High -- | Low -- °F
Precip. -- in
7:49 AM 6:28 PM
Waning Crescent, 2% visible
Pressure 30.15 in
Visibility 10.0 miles
Clouds Overcast 1000 ft
Windchill 26 °F
Dew Point 32 °F
Humidity 100%
Rainfall 0.00 in
Snow Depth 0 in , 0 in
UV 0 out of 12
Pollen .40 out of 12
Air Quality Not available.
Flu Activity No Activity
METAR KWYS 221335Z AUTO 19006KT 10SM OVC010 00/00 A3015 RMK AO2

More Conditions Fewer Conditions

Pressure 30.15 in
Visibility 10.0 miles
Clouds Overcast 1000 ft
Windchill 26 °F
Dew Point 32 °F
Humidity 100%
Rainfall 0.00 in
Snow Depth 0 in , 0 in
UV 0 out of 12
Pollen .40 out of 12
Air Quality Not available.
Flu Activity No Activity
METAR KWYS 221335Z AUTO 19006KT 10SM OVC010 00/00 A3015 RMK AO2

More Conditions Fewer Conditions

10-Day Weather Forecast

Almanac

Astronomy

Oct. 22, 2014 Rise Set
Actual Time 7:49 AM MDT 6:28 PM MDT
Civil Twilight 7:19 AM MDT 6:57 PM MDT
Nautical Twilight 6:45 AM MDT 7:31 PM MDT
Astronomical Twilight 6:11 AM MDT 8:05 PM MDT
Moon 6:30 AM MDT 5:58 PM MDT
Length of Visible Light 11h 38m
Length of Day
10h 39m
Tomorrow will be 2m 55s shorter.
Waning Crescent, 2% of the Moon is Illuminated
Today
Waning Crescent
Oct 23
New
Oct 30
First Quarter
Nov 6
Full
Nov 14
Last Quarter

Today's Extremes

State Highs State Lows

Community

WunderPhotos

Upload Photos

1,763,919 photos uploaded!

Nearby

Snow Depth

Station Depth Elevation
Whiskey Creek 0 in 6800 ft
Madison Plateau 0 in 7750 ft
Carrot Basin 1 in 9000 ft
Beaver Creek 0 in 7850 ft
Tepee Creek 0 in 8000 ft

Earthquake Activity

City Distance Mag. Time & Date
No recent earthquake activity has been reported nearby.
Minimum magnitude displayed is 2.5.

Coastal Water Temperatures

Place Temperature
No Stations Reporting

Nearby Weather Stations